Time;durP1;ratioP1;P1;durP2;ratioP2;P2;SDS_P1;SDS_P2;PMS_P1;PMS_P2;Temp;Humidity;BMP_temperature;BMP_pressure;BME280_temperature;BME280_humidity;BME280_pressure;Samples;Min_cycle;Max_cycle;Signal;HPM_P1;HPM_P2
2021/03/30 00:00:28;;;;;;;1.57;1.47;;;22.30;49.20;;;;;;5054226;28;20178;-67
2021/03/30 00:02:54;;;;;;;1.93;1.70;;;22.30;49.20;;;;;;5052817;28;20171;-65
2021/03/30 00:05:20;;;;;;;3.43;1.83;;;22.30;49.20;;;;;;5052699;28;20198;-66
2021/03/30 00:07:45;;;;;;;1.60;1.50;;;22.30;49.20;;;;;;5054067;28;20183;-66
2021/03/30 00:10:15;;;;;;;1.83;1.73;;;22.30;49.20;;;;;;5054040;28;20185;-67
2021/03/30 00:12:41;;;;;;;1.70;1.60;;;22.30;49.20;;;;;;5053632;28;20186;-67
2021/03/30 00:15:09;;;;;;;2.03;1.60;;;22.30;49.20;;;;;;5052617;28;20518;-65
2021/03/30 00:17:35;;;;;;;1.67;1.50;;;22.30;49.20;;;;;;5053617;28;20512;-66
2021/03/30 00:20:06;;;;;;;1.97;1.60;;;22.30;49.20;;;;;;5053925;28;20510;-67
2021/03/30 00:22:32;;;;;;;1.53;1.43;;;22.30;49.20;;;;;;5053818;28;20214;-67
2021/03/30 00:24:57;;;;;;;1.90;1.60;;;22.30;49.20;;;;;;5052433;28;20453;-67
2021/03/30 00:27:23;;;;;;;2.03;1.83;;;22.30;49.20;;;;;;5052350;28;20550;-67
2021/03/30 00:29:50;;;;;;;1.73;1.57;;;22.30;49.30;;;;;;5053303;28;20183;-67
2021/03/30 00:32:16;;;;;;;1.87;1.47;;;22.30;49.20;;;;;;5053575;28;20712;-67
2021/03/30 00:34:41;;;;;;;1.93;1.50;;;22.30;49.20;;;;;;5053509;28;20421;-69
2021/03/30 00:37:07;;;;;;;2.27;1.57;;;22.30;49.20;;;;;;5053382;28;20203;-65
2021/03/30 00:39:33;;;;;;;1.80;1.70;;;22.30;49.20;;;;;;5052164;28;20185;-68
2021/03/30 00:41:59;;;;;;;2.20;1.70;;;22.30;49.30;;;;;;5053435;28;20522;-66
2021/03/30 00:44:25;;;;;;;2.20;1.60;;;22.30;49.20;;;;;;5053295;28;20401;-66
2021/03/30 00:46:51;;;;;;;2.00;1.63;;;22.30;49.20;;;;;;5051488;28;20980;-68
2021/03/30 00:49:19;;;;;;;1.70;1.57;;;22.30;49.30;;;;;;5052953;28;20183;-67
2021/03/30 00:51:46;;;;;;;1.80;1.70;;;22.30;49.20;;;;;;5052787;28;20464;-67
2021/03/30 00:54:13;;;;;;;2.00;1.53;;;22.30;49.30;;;;;;5053172;28;20456;-67
2021/03/30 00:56:39;;;;;;;2.33;1.67;;;22.30;49.20;;;;;;5053006;28;20458;-67
2021/03/30 00:59:07;;;;;;;1.90;1.70;;;22.20;49.20;;;;;;5053151;28;20409;-66
2021/03/30 01:01:32;;;;;;;2.07;1.53;;;22.20;49.20;;;;;;5053006;28;20262;-69
2021/03/30 01:03:58;;;;;;;1.80;1.43;;;22.20;49.20;;;;;;5052533;28;20524;-67
2021/03/30 01:06:24;;;;;;;2.00;1.80;;;22.20;49.20;;;;;;5052959;28;20666;-67
2021/03/30 01:09:08;;;;;;;1.63;1.50;;;22.20;49.20;;;;;;5052961;28;20410;-66
2021/03/30 01:11:58;;;;;;;2.13;1.50;;;22.30;49.20;;;;;;5052914;28;20767;-64
2021/03/30 01:14:43;;;;;;;1.43;1.33;;;22.20;49.20;;;;;;5052825;28;20441;-68
2021/03/30 01:17:32;;;;;;;2.07;1.47;;;22.20;49.20;;;;;;5052507;28;20473;-68
2021/03/30 01:20:29;;;;;;;1.90;1.40;;;22.20;49.20;;;;;;5052422;28;20421;-66
2021/03/30 01:23:16;;;;;;;2.43;1.47;;;22.20;49.20;;;;;;5032756;28;20423;-66
2021/03/30 01:25:47;;;;;;;1.90;1.60;;;22.20;49.30;;;;;;5032647;28;20871;-67
2021/03/30 01:28:31;;;;;;;2.17;1.57;;;22.20;49.30;;;;;;5032689;28;20398;-67
2021/03/30 01:30:58;;;;;;;1.80;1.37;;;22.20;49.30;;;;;;5032481;28;20433;-66
2021/03/30 01:33:28;;;;;;;1.80;1.53;;;22.20;49.30;;;;;;5031183;28;20450;-67
2021/03/30 01:35:56;;;;;;;2.00;1.67;;;22.20;49.30;;;;;;5041367;28;20513;-67
2021/03/30 01:38:22;;;;;;;1.37;1.27;;;22.20;49.30;;;;;;5052220;28;20540;-67
2021/03/30 01:40:51;;;;;;;1.83;1.33;;;22.20;49.30;;;;;;5052288;28;20417;-67
2021/03/30 01:43:18;;;;;;;1.50;1.40;;;22.20;49.30;;;;;;5050931;28;20417;-65
2021/03/30 01:45:44;;;;;;;2.10;1.70;;;22.20;49.30;;;;;;5052040;28;20453;-67
2021/03/30 01:48:11;;;;;;;1.90;1.60;;;22.20;49.30;;;;;;5052076;28;20414;-66
2021/03/30 01:50:37;;;;;;;2.30;1.87;;;22.20;49.30;;;;;;5052120;28;20507;-66
2021/03/30 01:53:04;;;;;;;2.57;1.40;;;22.20;49.30;;;;;;5051671;28;20962;-68
2021/03/30 01:55:32;;;;;;;1.70;1.20;;;22.20;49.30;;;;;;5051904;28;20258;-67
2021/03/30 01:57:59;;;;;;;2.00;1.40;;;22.20;49.30;;;;;;5051530;28;20609;-67
2021/03/30 02:00:32;;;;;;;1.77;1.27;;;22.20;49.30;;;;;;5051923;28;20488;-66
2021/03/30 02:03:00;;;;;;;1.93;1.57;;;22.20;49.30;;;;;;5051310;28;20874;-65
2021/03/30 02:05:26;;;;;;;1.30;1.20;;;22.20;49.30;;;;;;5050520;28;20417;-66
2021/03/30 02:07:55;;;;;;;1.73;1.30;;;22.20;50.00;;;;;;5051848;28;20421;-65
2021/03/30 02:11:07;;;;;;;1.80;1.47;;;22.20;49.30;;;;;;5051410;28;20426;-67
2021/03/30 02:13:10;;;;;;;2.17;1.60;;;22.20;49.30;;;;;;5044350;28;20433;-67
2021/03/30 02:15:36;;;;;;;1.47;1.27;;;22.10;49.30;;;;;;5051377;28;20534;-69
2021/03/30 02:18:05;;;;;;;3.00;1.53;;;22.20;49.40;;;;;;5050254;28;20542;-67
2021/03/30 02:20:38;;;;;;;1.80;1.60;;;22.20;49.40;;;;;;5051445;28;20225;-65
2021/03/30 02:23:10;;;;;;;1.93;1.70;;;22.20;49.40;;;;;;5051469;28;20413;-65
2021/03/30 02:25:39;;;;;;;1.93;1.30;;;22.20;49.40;;;;;;5050997;28;20453;-68
2021/03/30 02:28:10;;;;;;;1.47;1.13;;;22.20;49.40;;;;;;5051506;28;21289;-66
2021/03/30 02:30:37;;;;;;;2.30;1.50;;;22.20;49.40;;;;;;5051478;28;20427;-67
2021/03/30 02:33:05;;;;;;;1.63;1.50;;;22.10;49.30;;;;;;5051343;28;20417;-67
2021/03/30 02:35:32;;;;;;;2.27;1.37;;;22.20;49.40;;;;;;5051289;28;20413;-67
2021/03/30 02:37:58;;;;;;;1.90;1.63;;;22.10;49.30;;;;;;5051253;28;20453;-66
2021/03/30 02:40:25;;;;;;;2.23;1.60;;;22.20;49.40;;;;;;5051288;28;20487;-66
2021/03/30 02:42:52;;;;;;;1.63;1.10;;;22.10;49.30;;;;;;5051198;28;20520;-66
2021/03/30 02:45:23;;;;;;;1.30;1.20;;;22.20;49.40;;;;;;5049879;28;20413;-67
2021/03/30 02:47:51;;;;;;;2.43;1.50;;;22.20;49.40;;;;;;5051255;28;20401;-67
2021/03/30 02:50:21;;;;;;;1.50;1.30;;;22.10;49.30;;;;;;5051275;28;20429;-66
2021/03/30 02:52:47;;;;;;;1.60;1.30;;;22.20;49.40;;;;;;5051035;28;20413;-64
2021/03/30 02:55:13;;;;;;;1.50;1.37;;;22.20;49.40;;;;;;5051138;28;20923;-66
2021/03/30 02:57:40;;;;;;;1.70;1.30;;;22.10;49.30;;;;;;5049624;28;20462;-68
2021/03/30 03:00:09;;;;;;;1.70;1.37;;;22.20;49.40;;;;;;5050348;28;20448;-68
2021/03/30 03:02:36;;;;;;;2.00;1.40;;;22.20;49.40;;;;;;5049674;28;20474;-66
2021/03/30 03:05:02;;;;;;;1.97;1.43;;;22.20;49.40;;;;;;5051045;28;20468;-67
2021/03/30 03:07:28;;;;;;;1.97;1.50;;;22.10;49.30;;;;;;5049528;28;20970;-67
2021/03/30 03:09:56;;;;;;;1.70;1.30;;;22.10;49.30;;;;;;5051125;28;20405;-68
2021/03/30 03:12:22;;;;;;;1.57;1.20;;;22.10;49.30;;;;;;5051046;28;20171;-66
2021/03/30 03:14:50;;;;;;;2.03;1.50;;;22.10;49.30;;;;;;5054809;28;20775;-67
2021/03/30 03:17:16;;;;;;;1.80;1.50;;;22.10;49.30;;;;;;5054704;28;20518;-67
2021/03/30 03:19:43;;;;;;;1.90;1.60;;;22.10;49.30;;;;;;5054995;28;20904;-67
2021/03/30 03:22:09;;;;;;;1.50;1.40;;;22.10;49.30;;;;;;5055046;28;20531;-65
2021/03/30 03:24:34;;;;;;;1.60;1.30;;;22.10;49.30;;;;;;5053664;28;21132;-66
2021/03/30 03:27:03;;;;;;;2.13;1.80;;;22.10;49.40;;;;;;5054793;28;20425;-67
2021/03/30 03:29:29;;;;;;;1.53;1.30;;;22.10;49.30;;;;;;5054910;28;20252;-65
2021/03/30 03:31:55;;;;;;;1.57;1.30;;;22.10;49.40;;;;;;5053622;28;20546;-67
2021/03/30 03:34:20;;;;;;;2.07;1.63;;;22.20;49.40;;;;;;5053305;28;20524;-66
2021/03/30 03:36:49;;;;;;;1.30;1.20;;;22.10;49.30;;;;;;5053299;28;20206;-67
2021/03/30 03:39:16;;;;;;;2.03;1.50;;;22.10;49.90;;;;;;5054723;28;20217;-66
2021/03/30 03:41:43;;;;;;;1.87;1.40;;;22.10;49.40;;;;;;5054589;28;20402;-66
2021/03/30 03:44:09;;;;;;;1.50;1.40;;;22.10;49.40;;;;;;5054512;28;20416;-68
2021/03/30 03:46:35;;;;;;;1.60;1.37;;;22.10;49.40;;;;;;5054487;28;21029;-66
2021/03/30 03:49:02;;;;;;;1.73;1.60;;;22.20;49.40;;;;;;5054149;28;20436;-65
2021/03/30 03:51:32;;;;;;;1.50;1.40;;;22.10;49.40;;;;;;5054478;28;20413;-65
2021/03/30 03:54:00;;;;;;;1.93;1.67;;;22.10;49.40;;;;;;5054330;28;20416;-67
2021/03/30 03:56:47;;;;;;;1.63;1.27;;;22.10;49.40;;;;;;5054231;28;20456;-67
2021/03/30 03:59:20;;;;;;;2.03;1.50;;;22.10;49.40;;;;;;5054383;28;20390;-67
2021/03/30 04:01:48;;;;;;;1.87;1.63;;;22.10;49.40;;;;;;5054244;28;20861;-65
2021/03/30 04:04:28;;;;;;;1.50;1.20;;;22.10;49.40;;;;;;5054205;28;20484;-66
2021/03/30 04:07:00;;;;;;;1.70;1.20;;;22.10;49.40;;;;;;5053725;28;20445;-67
2021/03/30 04:09:27;;;;;;;1.60;1.50;;;22.10;49.40;;;;;;5054165;28;20405;-66
2021/03/30 04:11:54;;;;;;;1.83;1.40;;;22.10;49.40;;;;;;5054167;28;20405;-66
2021/03/30 04:14:20;;;;;;;2.30;1.53;;;22.10;50.00;;;;;;5052683;28;20480;-66
2021/03/30 04:16:47;;;;;;;1.77;1.40;;;22.10;49.50;;;;;;5052448;28;20476;-67
2021/03/30 04:19:13;;;;;;;2.00;1.33;;;22.10;49.50;;;;;;5053947;28;20417;-66
2021/03/30 04:21:39;;;;;;;1.70;1.40;;;22.10;49.50;;;;;;5052102;28;20437;-68
2021/03/30 04:24:08;;;;;;;1.60;1.30;;;22.10;49.50;;;;;;5053529;28;20182;-66
2021/03/30 04:26:39;;;;;;;2.33;1.40;;;22.10;49.50;;;;;;5053525;28;20426;-66
2021/03/30 04:29:05;;;;;;;1.70;1.37;;;22.10;49.50;;;;;;5053742;28;20417;-67
2021/03/30 04:31:31;;;;;;;1.50;1.40;;;22.10;49.50;;;;;;5053821;28;20406;-64
2021/03/30 04:33:57;;;;;;;1.50;1.40;;;22.10;49.50;;;;;;5053626;28;20410;-69
2021/03/30 04:36:22;;;;;;;1.80;1.53;;;22.10;49.50;;;;;;5053512;28;20444;-66
2021/03/30 04:38:48;;;;;;;1.30;1.20;;;22.10;49.50;;;;;;5053209;28;20175;-68
2021/03/30 04:41:14;;;;;;;2.63;2.00;;;22.10;49.50;;;;;;5053530;28;20198;-65
2021/03/30 04:43:39;;;;;;;1.70;1.60;;;22.10;49.50;;;;;;5053466;28;20177;-67
2021/03/30 04:46:08;;;;;;;2.27;2.00;;;22.10;49.50;;;;;;5053371;28;20222;-65
2021/03/30 04:48:35;;;;;;;1.40;1.20;;;22.10;49.60;;;;;;5053492;28;20654;-66
2021/03/30 04:51:01;;;;;;;2.27;1.57;;;22.10;49.50;;;;;;5052175;28;20406;-66
2021/03/30 04:53:27;;;;;;;2.57;1.50;;;22.10;49.60;;;;;;5053362;28;20819;-65
2021/03/30 04:55:53;;;;;;;1.70;1.60;;;22.10;49.50;;;;;;5051483;28;20294;-66
2021/03/30 04:58:19;;;;;;;1.70;1.30;;;22.10;49.50;;;;;;5053140;28;20528;-67
2021/03/30 05:00:45;;;;;;;2.27;1.50;;;22.10;49.50;;;;;;5053041;28;20181;-68
2021/03/30 05:03:11;;;;;;;1.30;1.20;;;22.10;49.50;;;;;;5053129;28;20401;-66
2021/03/30 05:05:37;;;;;;;1.70;1.47;;;22.10;49.40;;;;;;5053015;28;20425;-66
2021/03/30 05:08:03;;;;;;;1.97;1.10;;;22.10;49.40;;;;;;5053032;28;20412;-69
2021/03/30 05:10:29;;;;;;;1.40;1.20;;;22.10;49.40;;;;;;5053038;28;20409;-64
2021/03/30 05:12:54;;;;;;;1.50;1.10;;;22.10;49.40;;;;;;5052644;28;20544;-66
2021/03/30 05:15:20;;;;;;;1.57;1.20;;;22.10;49.40;;;;;;5052762;28;20178;-65
2021/03/30 05:17:46;;;;;;;1.57;1.27;;;22.10;49.30;;;;;;5053070;28;20689;-66
2021/03/30 05:20:12;;;;;;;1.53;1.40;;;22.10;49.30;;;;;;5052812;28;20178;-67
2021/03/30 05:22:37;;;;;;;1.40;1.30;;;22.20;49.30;;;;;;5052836;28;20532;-67
2021/03/30 05:25:05;;;;;;;1.80;1.30;;;22.20;49.30;;;;;;5052706;28;20496;-68
2021/03/30 05:27:30;;;;;;;1.33;1.07;;;22.20;49.30;;;;;;5052606;28;20608;-67
2021/03/30 05:29:56;;;;;;;1.40;1.23;;;22.20;49.30;;;;;;5052320;28;20425;-66
2021/03/30 05:32:22;;;;;;;1.90;1.53;;;22.20;49.20;;;;;;5051172;28;20651;-67
2021/03/30 05:34:48;;;;;;;2.27;1.50;;;22.20;49.20;;;;;;5052612;28;20182;-66
2021/03/30 05:37:15;;;;;;;1.10;0.93;;;22.30;49.30;;;;;;5051301;28;20206;-67
2021/03/30 05:39:41;;;;;;;1.70;1.37;;;22.20;49.20;;;;;;5052448;28;20922;-65
2021/03/30 05:42:07;;;;;;;1.70;1.50;;;22.20;49.20;;;;;;5052365;28;20402;-65
2021/03/30 05:44:34;;;;;;;1.80;1.57;;;22.30;49.30;;;;;;5052229;28;20405;-67
2021/03/30 05:47:10;;;;;;;1.43;1.27;;;22.30;49.20;;;;;;5051840;28;20449;-66
2021/03/30 05:49:41;;;;;;;1.30;1.10;;;22.30;49.20;;;;;;5052310;28;20755;-68
2021/03/30 05:52:14;;;;;;;2.17;1.40;;;22.30;49.20;;;;;;5052322;28;20425;-67
2021/03/30 05:54:43;;;;;;;2.20;1.63;;;22.20;49.20;;;;;;5050983;28;20421;-67
2021/03/30 05:57:13;;;;;;;2.87;1.30;;;22.30;49.20;;;;;;5051983;28;20488;-66
2021/03/30 05:59:41;;;;;;;1.63;1.50;;;22.30;49.20;;;;;;5052027;28;20496;-67
2021/03/30 06:02:22;;;;;;;1.70;1.40;;;22.30;49.20;;;;;;5051674;28;20424;-67
2021/03/30 06:04:49;;;;;;;4.53;1.47;;;22.30;49.20;;;;;;5052067;28;20923;-64
2021/03/30 06:07:15;;;;;;;2.30;1.33;;;22.30;49.20;;;;;;5052096;28;20436;-66
2021/03/30 06:09:42;;;;;;;1.53;1.43;;;22.30;49.20;;;;;;5051929;28;20912;-66
2021/03/30 06:12:11;;;;;;;1.50;1.20;;;22.30;49.20;;;;;;5050456;28;20426;-66
2021/03/30 06:14:41;;;;;;;1.90;1.70;;;22.30;49.20;;;;;;5051820;28;20777;-68
2021/03/30 06:17:09;;;;;;;1.60;1.40;;;22.30;49.20;;;;;;5051568;28;20879;-67
2021/03/30 06:19:55;;;;;;;2.57;1.80;;;22.30;49.10;;;;;;5051296;28;21140;-65
2021/03/30 06:22:25;;;;;;;1.70;1.60;;;22.40;49.20;;;;;;5051608;28;20441;-68
2021/03/30 06:24:52;;;;;;;2.00;1.60;;;22.30;49.20;;;;;;5051619;28;20456;-69
2021/03/30 06:27:27;;;;;;;1.70;1.40;;;22.30;49.20;;;;;;5051699;28;20442;-66
2021/03/30 06:29:54;;;;;;;3.20;1.67;;;22.40;49.20;;;;;;5051623;28;20392;-64
2021/03/30 06:32:23;;;;;;;1.77;1.40;;;22.40;49.20;;;;;;5051574;28;20415;-67
2021/03/30 06:34:51;;;;;;;2.30;1.73;;;22.40;49.20;;;;;;5051225;28;20405;-68
2021/03/30 06:37:26;;;;;;;1.40;1.30;;;22.40;49.20;;;;;;5051242;28;20552;-67
2021/03/30 06:39:53;;;;;;;1.80;1.60;;;22.40;49.20;;;;;;5051454;28;20412;-67
2021/03/30 06:45:13;;;;;;;2.10;1.80;;;22.40;49.20;;;;;;5051708;28;20429;-66
2021/03/30 06:47:44;;;;;;;1.70;1.60;;;22.40;49.20;;;;;;5051193;28;20515;-66
2021/03/30 06:50:34;;;;;;;3.10;1.67;;;22.40;49.20;;;;;;5051397;28;20398;-67
2021/03/30 06:53:11;;;;;;;1.80;1.30;;;22.50;49.20;;;;;;5049624;28;20797;-68
2021/03/30 06:55:47;;;;;;;2.47;1.80;;;22.50;49.20;;;;;;5051210;28;20950;-65
2021/03/30 06:58:14;;;;;;;1.97;1.50;;;22.50;49.20;;;;;;5051416;28;20552;-66
2021/03/30 07:00:40;;;;;;;1.53;1.30;;;22.50;49.20;;;;;;5051306;28;20421;-67
2021/03/30 07:03:07;;;;;;;3.70;1.60;;;22.50;49.20;;;;;;5050105;28;20932;-66
2021/03/30 07:05:35;;;;;;;2.77;1.43;;;22.60;49.20;;;;;;5051104;28;20647;-68
2021/03/30 07:08:02;;;;;;;1.47;1.37;;;22.60;49.20;;;;;;5050830;28;20929;-65
2021/03/30 07:10:29;;;;;;;1.80;1.60;;;22.60;49.20;;;;;;5050874;28;20413;-64
2021/03/30 07:12:56;;;;;;;2.60;1.53;;;22.60;49.20;;;;;;5051002;28;20424;-66
2021/03/30 07:15:24;;;;;;;2.43;1.40;;;22.60;49.20;;;;;;5050832;28;20418;-67
2021/03/30 07:18:00;;;;;;;1.87;1.10;;;22.60;49.20;;;;;;5051057;28;20441;-66
2021/03/30 07:20:26;;;;;;;1.63;1.40;;;22.70;49.20;;;;;;5050774;28;20468;-67
2021/03/30 07:22:54;;;;;;;1.57;1.40;;;22.70;49.20;;;;;;5050647;28;20564;-65
2021/03/30 07:30:42;;;;;;;;;;;;;;;;;;;;;
2021/03/30 07:34:07;;;;;;;1.50;1.30;;;22.70;49.30;;;;;;4979929;28;20500;-81
2021/03/30 07:44:10;;;;;;;1.80;1.60;;;22.70;49.30;;;;;;4929246;28;20924;-82
2021/03/30 07:46:37;;;;;;;1.47;1.37;;;22.70;49.30;;;;;;4931712;29;20475;-83
2021/03/30 07:49:11;;;;;;;1.60;1.37;;;22.70;49.40;;;;;;4936108;29;20423;-82
2021/03/30 07:51:44;;;;;;;1.57;1.40;;;22.70;49.40;;;;;;4922237;29;20524;-84
2021/03/30 07:54:15;;;;;;;1.73;1.17;;;22.80;49.40;;;;;;4918948;29;20427;-82
2021/03/30 07:58:13;;;;;;;;;;;;;;;;;;;;;
2021/03/30 08:03:56;;;;;;;2.17;1.50;;;22.80;49.40;;;;;;4795519;30;20427;-82
2021/03/30 08:13:16;;;;;;;1.43;1.10;;;22.80;49.40;;;;;;4852713;29;20437;-82
2021/03/30 08:16:59;;;;;;;;;;;;;;;;;;;;;
2021/03/30 08:19:01;;;;;;;1.83;1.47;;;22.80;49.40;;;;;;4868907;29;20430;-82
2021/03/30 08:22:34;;;;;;;;;;;;;;;;;;;;;
2021/03/30 08:24:57;;;;;;;2.00;1.00;;;22.80;49.40;;;;;;4867846;29;20474;-81
2021/03/30 08:27:48;;;;;;;;;;;;;;;;;;;;;
2021/03/30 08:31:35;;;;;;;;;;;;;;;;;;;;;
2021/03/30 08:34:09;;;;;;;1.53;1.30;;;22.90;50.00;;;;;;4872318;29;20438;-84
2021/03/30 08:37:26;;;;;;;;;;;;;;;;;;;;;
2021/03/30 08:40:26;;;;;;;2.10;1.10;;;22.90;49.50;;;;;;4987545;28;20457;-81
2021/03/30 08:52:53;;;;;;;1.90;1.23;;;22.80;49.30;;;;;;4996580;28;20432;-83
2021/03/30 08:55:32;;;;;;;2.00;1.57;;;22.90;49.50;;;;;;4982732;28;20498;-81
2021/03/30 08:58:00;;;;;;;1.40;1.30;;;22.90;49.40;;;;;;4976187;28;20490;-83
2021/03/30 09:00:26;;;;;;;1.20;1.10;;;22.90;49.50;;;;;;4998496;28;20440;-84
2021/03/30 09:03:05;;;;;;;2.40;1.77;;;22.90;49.40;;;;;;4984182;28;20421;-85
2021/03/30 09:05:43;;;;;;;2.20;1.60;;;22.90;49.40;;;;;;4995843;28;20500;-82
2021/03/30 09:08:11;;;;;;;1.83;1.30;;;23.00;49.40;;;;;;4995729;28;20423;-81
2021/03/30 09:11:12;;;;;;;1.70;1.40;;;22.80;49.40;;;;;;4977514;28;20476;-80
2021/03/30 09:13:40;;;;;;;2.40;1.33;;;23.00;49.40;;;;;;4978066;28;20460;-81
2021/03/30 09:16:13;;;;;;;1.40;1.10;;;23.00;49.40;;;;;;4977641;28;20796;-80
2021/03/30 09:18:39;;;;;;;1.60;1.50;;;23.00;49.40;;;;;;4973126;28;20461;-81
2021/03/30 09:56:40;;;;;;;1.47;1.07;;;22.90;49.60;;;;;;4776511;30;20852;-83
2021/03/30 09:59:59;;;;;;;2.23;1.30;;;22.80;49.50;;;;;;4776979;30;20495;-83
2021/03/30 10:02:28;;;;;;;1.40;1.00;;;22.90;49.60;;;;;;4816431;29;20948;-85
2021/03/30 10:05:03;;;;;;;1.53;1.10;;;22.80;49.60;;;;;;4796677;29;20430;-82
2021/03/30 10:07:40;;;;;;;1.77;1.33;;;22.90;49.60;;;;;;4802955;29;20428;-82
2021/03/30 10:10:20;;;;;;;1.60;1.03;;;22.90;49.60;;;;;;4792108;29;20466;-82
2021/03/30 10:12:59;;;;;;;2.13;1.00;;;22.90;49.60;;;;;;4795986;29;20438;-82
2021/03/30 10:15:51;;;;;;;;;;;;;;;;;;;;;
2021/03/30 10:18:47;;;;;;;1.57;1.13;;;23.10;49.60;;;;;;4845210;29;20554;-82
2021/03/30 10:21:29;;;;;;;;;;;;;;;;;;;;;
2021/03/30 10:24:00;;;;;;;1.90;1.50;;;22.90;49.50;;;;;;4854672;29;20490;-81
2021/03/30 10:26:27;;;;;;;1.40;1.20;;;22.90;49.60;;;;;;4890371;29;20421;-82
2021/03/30 10:29:04;;;;;;;1.87;1.20;;;22.90;49.50;;;;;;4908182;29;20425;-82
2021/03/30 10:31:42;;;;;;;1.43;0.97;;;22.90;49.50;;;;;;4940617;28;20807;-81
2021/03/30 10:34:34;;;;;;;1.70;1.13;;;22.90;49.50;;;;;;4979048;28;20421;-81
2021/03/30 10:37:04;;;;;;;1.10;0.90;;;22.90;49.50;;;;;;4977679;28;20993;-81
2021/03/30 10:39:41;;;;;;;2.00;1.20;;;22.90;49.50;;;;;;4982904;28;20429;-81
2021/03/30 10:42:18;;;;;;;2.00;1.10;;;22.90;49.50;;;;;;4998237;28;20425;-81
2021/03/30 10:44:55;;;;;;;1.37;1.10;;;23.00;49.50;;;;;;4968447;28;20433;-81
2021/03/30 10:47:33;;;;;;;3.13;2.83;;;22.90;49.50;;;;;;4983940;28;20511;-81
2021/03/30 10:49:59;;;;;;;1.40;1.30;;;22.90;49.50;;;;;;4984054;28;20444;-83
2021/03/30 10:52:31;;;;;;;1.20;1.10;;;22.90;49.50;;;;;;4984030;28;20503;-82
2021/03/30 10:55:02;;;;;;;1.30;1.10;;;22.90;49.40;;;;;;4984150;28;20421;-82
2021/03/30 10:57:35;;;;;;;1.60;1.30;;;22.90;49.50;;;;;;4998946;28;20465;-82
2021/03/30 11:00:08;;;;;;;1.90;1.40;;;22.90;49.50;;;;;;4976323;28;20449;-82
2021/03/30 11:02:37;;;;;;;1.30;1.10;;;22.90;49.40;;;;;;4983554;28;20488;-82
2021/03/30 11:05:07;;;;;;;1.77;1.30;;;23.00;49.60;;;;;;5000244;28;20424;-82
2021/03/30 11:07:41;;;;;;;2.77;1.40;;;23.00;49.60;;;;;;4984867;28;20911;-81
2021/03/30 11:13:36;;;;;;;;;;;;;;;;;;;;;
2021/03/30 11:16:02;;;;;;;1.47;1.20;;;22.90;49.50;;;;;;4984348;28;20512;-81
2021/03/30 11:18:31;;;;;;;1.50;1.10;;;22.90;49.50;;;;;;4984972;28;20484;-82
2021/03/30 11:21:42;;;;;;;;;;;;;;;;;;;;;
2021/03/30 11:24:24;;;;;;;1.40;1.20;;;23.00;49.50;;;;;;4978267;28;20484;-82
2021/03/30 11:38:59;;;;;;;1.20;1.10;;;22.90;49.50;;;;;;4985350;28;20500;-82
2021/03/30 11:42:21;;;;;;;;;;;;;;;;;;;;;
2021/03/30 11:48:09;;;;;;;1.60;1.40;;;22.90;49.60;;;;;;4982779;28;20428;-81
2021/03/30 11:50:40;;;;;;;2.00;1.70;;;22.90;49.60;;;;;;4986084;28;20440;-81
2021/03/30 11:53:06;;;;;;;3.90;1.67;;;22.90;49.60;;;;;;4985945;28;20452;-81
2021/03/30 11:55:32;;;;;;;4.80;2.30;;;22.90;49.70;;;;;;4985488;28;20433;-82
2021/03/30 11:58:00;;;;;;;3.30;2.20;;;22.90;49.60;;;;;;4990345;28;20229;-83
2021/03/30 12:10:42;;;;;;;6.57;3.20;;;22.90;49.60;;;;;;4986304;28;20384;-82
2021/03/30 12:13:13;;;;;;;4.30;2.47;;;22.80;49.70;;;;;;4986493;28;20479;-81
2021/03/30 12:15:39;;;;;;;5.10;2.90;;;22.80;49.80;;;;;;4985370;28;20428;-81
2021/03/30 12:18:05;;;;;;;8.10;3.67;;;22.80;49.70;;;;;;4985205;28;20457;-81
2021/03/30 12:20:35;;;;;;;7.70;3.40;;;22.80;49.70;;;;;;4985839;28;20221;-82
2021/03/30 12:23:01;;;;;;;4.10;2.97;;;22.80;49.60;;;;;;4973653;28;20510;-83
2021/03/30 12:25:41;;;;;;;4.30;3.00;;;22.80;49.70;;;;;;4991170;28;20424;-83
2021/03/30 12:29:06;;;;;;;;;;;;;;;;;;;;;
2021/03/30 12:35:06;;;;;;;6.70;3.40;;;22.80;49.60;;;;;;4895608;29;20424;-82
2021/03/30 12:37:41;;;;;;;5.47;2.87;;;22.80;49.70;;;;;;4895688;29;20588;-83
2021/03/30 12:40:08;;;;;;;4.80;3.27;;;22.80;49.70;;;;;;4867887;29;20416;-82
2021/03/30 12:42:44;;;;;;;7.37;4.43;;;22.70;49.60;;;;;;4839972;29;20429;-83
2021/03/30 12:45:13;;;;;;;5.67;3.60;;;22.80;49.80;;;;;;4839745;29;20424;-83
2021/03/30 12:47:45;;;;;;;5.07;4.07;;;22.80;49.60;;;;;;4839827;29;20436;-83
2021/03/30 12:50:11;;;;;;;8.57;4.37;;;22.80;49.60;;;;;;4840488;29;20568;-82
2021/03/30 12:52:38;;;;;;;6.67;3.80;;;22.80;49.60;;;;;;4840423;29;20431;-83
2021/03/30 12:55:14;;;;;;;4.83;3.50;;;22.80;49.70;;;;;;4841016;29;20440;-83
2021/03/30 13:00:54;;;;;;;5.23;3.50;;;22.80;49.60;;;;;;4848973;29;20424;-85
2021/03/30 13:03:25;;;;;;;4.70;3.30;;;22.80;49.70;;;;;;4881493;29;20541;-84
2021/03/30 13:05:54;;;;;;;6.27;3.77;;;22.80;49.70;;;;;;4881466;29;20410;-84
2021/03/30 13:08:21;;;;;;;7.33;3.97;;;22.80;49.70;;;;;;4917281;29;20426;-84
2021/03/30 13:10:49;;;;;;;7.23;3.93;;;22.80;49.60;;;;;;4953346;29;20434;-83
2021/03/30 13:13:15;;;;;;;4.90;3.60;;;22.80;49.60;;;;;;4937459;29;20419;-84
2021/03/30 13:15:47;;;;;;;5.60;3.97;;;22.70;49.60;;;;;;4937117;29;20431;-83
2021/03/30 13:19:02;;;;;;;6.90;4.40;;;22.80;49.60;;;;;;4937810;29;20207;-83
2021/03/30 13:21:28;;;;;;;4.37;3.60;;;22.80;49.60;;;;;;4955620;29;20482;-84
2021/03/30 13:24:12;;;;;;;6.03;3.50;;;22.70;49.70;;;;;;4936836;29;20423;-82
2021/03/30 13:27:13;;;;;;;8.13;3.80;;;22.80;49.60;;;;;;4937195;29;20490;-82
2021/03/30 13:30:22;;;;;;;;;;;;;;;;;;;;;
2021/03/30 13:33:18;;;;;;;;;;;;;;;;;;;;;
2021/03/30 13:35:56;;;;;;;6.10;3.00;;;22.80;49.80;;;;;;4905222;29;20472;-82
2021/03/30 13:45:18;;;;;;;3.87;3.47;;;22.70;49.60;;;;;;4914679;29;20484;-84
2021/03/30 13:47:44;;;;;;;7.53;3.37;;;22.60;49.70;;;;;;4935946;29;20469;-84
2021/03/30 13:50:13;;;;;;;7.27;3.60;;;22.70;49.80;;;;;;4936324;29;20423;-83
2021/03/30 13:52:39;;;;;;;6.77;3.90;;;22.70;49.70;;;;;;4935879;29;20477;-83
2021/03/30 13:55:06;;;;;;;6.17;3.40;;;22.70;49.70;;;;;;4935599;29;20434;-83
2021/03/30 13:57:40;;;;;;;6.10;3.63;;;22.70;49.70;;;;;;4951636;29;20731;-83
2021/03/30 14:00:19;;;;;;;3.83;3.30;;;22.70;49.70;;;;;;4936370;29;20427;-84
2021/03/30 14:02:45;;;;;;;6.73;3.27;;;22.70;49.70;;;;;;4951229;29;20476;-83
2021/03/30 14:05:12;;;;;;;5.73;3.17;;;22.70;49.80;;;;;;4950969;29;20415;-83
2021/03/30 14:07:44;;;;;;;5.17;3.27;;;22.70;49.70;;;;;;4950299;29;20184;-82
2021/03/30 14:10:10;;;;;;;4.40;3.30;;;22.70;49.70;;;;;;4981292;28;20427;-82
2021/03/30 14:12:50;;;;;;;4.30;3.10;;;22.70;49.70;;;;;;4990532;28;20489;-83
2021/03/30 14:21:04;;;;;;;4.13;3.53;;;22.60;50.20;;;;;;4988169;28;20863;-87
2021/03/30 14:24:02;;;;;;;5.00;3.43;;;22.70;50.00;;;;;;4988956;28;20432;-88
2021/03/30 14:26:30;;;;;;;5.20;4.00;;;22.70;49.70;;;;;;4988277;28;20918;-87
2021/03/30 14:28:59;;;;;;;5.40;3.67;;;22.70;49.80;;;;;;4986322;28;20417;-88
2021/03/30 14:31:25;;;;;;;3.80;2.87;;;22.70;49.80;;;;;;4987215;28;20421;-89
2021/03/30 14:33:55;;;;;;;4.77;3.53;;;22.70;49.80;;;;;;4988150;28;20405;-88
2021/03/30 14:36:21;;;;;;;3.97;2.73;;;22.70;49.70;;;;;;4988158;28;20421;-88
2021/03/30 14:38:53;;;;;;;5.13;4.40;;;22.70;49.70;;;;;;4987151;28;20454;-88
2021/03/30 14:41:32;;;;;;;4.47;3.33;;;22.70;49.70;;;;;;4986073;28;20440;-88
2021/03/30 14:44:29;;;;;;;4.97;3.60;;;22.80;49.70;;;;;;4987255;28;20416;-88
2021/03/30 14:52:29;;;;;;;4.10;3.10;;;22.80;49.70;;;;;;4986543;28;20491;-89
2021/03/30 15:03:13;;;;;;;6.30;3.33;;;22.80;49.70;;;;;;4988169;28;20424;-88
2021/03/30 15:05:39;;;;;;;3.80;3.27;;;22.80;49.70;;;;;;4987154;28;20427;-88
2021/03/30 15:08:05;;;;;;;6.80;3.00;;;22.80;49.70;;;;;;4987826;28;20441;-88
2021/03/30 15:10:33;;;;;;;7.57;3.87;;;22.80;49.80;;;;;;4987290;28;20429;-88
2021/03/30 15:12:59;;;;;;;7.13;3.10;;;22.90;49.80;;;;;;4988394;28;20414;-87
2021/03/30 15:15:36;;;;;;;4.20;3.30;;;22.80;49.70;;;;;;4987472;28;20428;-88
2021/03/30 15:18:01;;;;;;;7.20;3.67;;;22.90;49.80;;;;;;4985402;28;20208;-88
2021/03/30 15:20:27;;;;;;;4.40;3.60;;;22.80;49.70;;;;;;4986367;28;20405;-88
2021/03/30 15:22:53;;;;;;;3.60;2.50;;;22.90;49.90;;;;;;4986694;28;20176;-87
2021/03/30 15:25:20;;;;;;;5.00;3.00;;;22.90;49.80;;;;;;4985963;28;20170;-89
2021/03/30 15:27:46;;;;;;;3.60;2.90;;;22.90;49.70;;;;;;5001378;28;20416;-88
2021/03/30 15:30:13;;;;;;;4.03;3.10;;;22.90;50.00;;;;;;4988319;28;20776;-88
2021/03/30 15:32:51;;;;;;;;;;;;;;;;;;;;;
2021/03/30 15:35:18;;;;;;;4.43;2.83;;;22.90;49.70;;;;;;4989217;28;20425;-89
2021/03/30 15:37:47;;;;;;;3.43;3.00;;;22.90;49.70;;;;;;4985533;28;20472;-88
2021/03/30 15:40:19;;;;;;;4.23;3.40;;;22.90;49.70;;;;;;4985942;28;20405;-86
2021/03/30 15:42:44;;;;;;;3.43;3.00;;;22.90;49.70;;;;;;4986580;28;20514;-85
2021/03/30 15:48:07;;;;;;;2.73;2.53;;;22.90;49.80;;;;;;4992037;28;20168;-83